Terminal Aerodrome Forecast
Issued by NWS Louisville, KY

Home | Current Version | Previous Version | Text Only | Print | Product List | Glossary On
Versions: 1 2 3 4 5 6 7 8 9 10 11 12 13 14 15
000
FTUS43 KLMK 300500
TAFSDF
TAF
KSDF 300522Z 3006/3112 17006KT P6SM SCT100
     FM301500 21010KT P6SM SCT050 BKN100
     FM301700 21012KT 6SM -SHRA VCTS BKN035CB
     FM310100 18008KT P6SM VCSH SCT020 BKN035=

USA.gov is the U.S. government's official web portal to all federal, state and local government web resources and services.